Time;durP1;ratioP1;P1;durP2;ratioP2;P2;SDS_P1;SDS_P2;PMS_P1;PMS_P2;Temp;Humidity;BMP_temperature;BMP_pressure;BME280_temperature;BME280_humidity;BME280_pressure;Samples;Min_cycle;Max_cycle;Signal;HPM_P1;HPM_P2
2022/06/01 00:00:34;;;;;;;9.93;6.88;;;14.60;99.90;;;;;;4188276;28;20110;-65
2022/06/01 00:02:36;;;;;;;8.80;7.78;;;14.60;99.90;;;;;;4187926;28;20847;-63
2022/06/01 00:04:38;;;;;;;12.40;8.25;;;14.60;99.90;;;;;;4188728;28;20106;-66
2022/06/01 00:06:39;;;;;;;11.43;7.80;;;14.60;99.90;;;;;;4188258;28;20083;-66
2022/06/01 00:08:41;;;;;;;11.60;7.32;;;14.60;99.90;;;;;;4188871;28;20037;-64
2022/06/01 00:10:42;;;;;;;15.07;7.38;;;14.50;99.90;;;;;;4187648;28;20025;-65
2022/06/01 00:12:43;;;;;;;10.40;6.88;;;14.50;99.90;;;;;;4189037;28;20452;-62
2022/06/01 00:14:44;;;;;;;12.48;7.53;;;14.50;99.90;;;;;;4187639;28;20799;-65
2022/06/01 00:16:46;;;;;;;12.88;7.25;;;14.50;99.90;;;;;;4189104;28;20028;-65
2022/06/01 00:18:47;;;;;;;7.57;6.35;;;14.40;99.90;;;;;;4187778;28;20078;-64
2022/06/01 00:20:49;;;;;;;12.60;7.78;;;14.40;99.90;;;;;;4182850;28;20582;-64
2022/06/01 00:22:50;;;;;;;11.90;7.35;;;14.50;99.90;;;;;;4179329;28;20036;-64
2022/06/01 00:24:52;;;;;;;11.10;6.80;;;14.50;99.90;;;;;;4190371;28;20407;-65
2022/06/01 00:26:53;;;;;;;8.68;6.50;;;14.40;99.90;;;;;;4190548;28;20118;-63
2022/06/01 00:28:54;;;;;;;11.95;7.30;;;14.40;99.90;;;;;;4191165;28;20056;-67
2022/06/01 00:30:55;;;;;;;11.77;6.50;;;14.30;99.90;;;;;;4191124;28;20091;-66
2022/06/01 00:32:56;;;;;;;9.88;6.03;;;14.20;99.90;;;;;;4191759;28;20025;-65
2022/06/01 00:35:00;;;;;;;9.27;6.50;;;14.10;99.90;;;;;;4185469;28;20094;-64
2022/06/01 00:37:01;;;;;;;9.57;5.95;;;14.10;99.90;;;;;;4173981;28;20138;-63
2022/06/01 00:39:02;;;;;;;12.20;5.60;;;14.10;99.90;;;;;;4175249;28;20037;-66
2022/06/01 00:41:03;;;;;;;11.93;6.15;;;14.00;99.90;;;;;;4174204;28;20033;-64
2022/06/01 00:43:19;;;;;;;10.90;5.80;;;14.00;99.90;;;;;;4174624;28;20436;-65
2022/06/01 00:45:22;;;;;;;12.40;6.28;;;13.90;99.90;;;;;;4173850;28;20029;-67
2022/06/01 00:47:26;;;;;;;14.13;6.50;;;13.90;99.90;;;;;;4188558;28;20086;-65
2022/06/01 00:49:28;;;;;;;12.37;6.23;;;13.90;99.90;;;;;;4190661;28;20086;-63
2022/06/01 00:51:30;;;;;;;7.97;5.80;;;13.90;99.90;;;;;;4191273;28;20028;-64
2022/06/01 00:53:35;;;;;;;8.20;5.87;;;13.90;99.90;;;;;;4173830;28;20037;-64
2022/06/01 00:55:42;;;;;;;8.20;6.15;;;13.90;99.90;;;;;;4173121;28;20103;-65
2022/06/01 00:57:45;;;;;;;12.07;6.27;;;13.90;99.90;;;;;;4173667;28;20033;-67
2022/06/01 00:59:47;;;;;;;10.53;6.17;;;13.90;99.90;;;;;;4158260;28;20042;-65
2022/06/01 01:01:49;;;;;;;9.30;6.43;;;13.90;99.90;;;;;;4164968;28;20033;-64
2022/06/01 01:03:56;;;;;;;11.03;6.10;;;13.90;99.90;;;;;;4174932;28;20099;-65
2022/06/01 01:06:06;;;;;;;9.87;5.80;;;13.90;99.90;;;;;;4173820;28;20032;-66
2022/06/01 01:08:09;;;;;;;8.45;6.68;;;13.90;99.90;;;;;;4174396;28;20032;-66
2022/06/01 01:10:13;;;;;;;10.47;6.30;;;13.90;99.90;;;;;;4174088;28;20041;-63
2022/06/01 01:12:14;;;;;;;9.02;6.53;;;13.80;99.90;;;;;;4174250;28;20033;-65
2022/06/01 01:14:23;;;;;;;7.80;5.90;;;13.80;99.90;;;;;;4174031;28;20029;-64
2022/06/01 01:16:25;;;;;;;10.80;6.17;;;13.80;99.90;;;;;;4180280;28;20841;-66
2022/06/01 01:18:30;;;;;;;10.87;6.33;;;13.80;99.90;;;;;;4190408;28;20823;-65
2022/06/01 01:20:31;;;;;;;10.43;6.00;;;13.80;99.90;;;;;;4189976;28;20041;-64
2022/06/01 01:22:45;;;;;;;8.52;5.70;;;13.80;99.90;;;;;;4183241;28;20033;-65
2022/06/01 01:25:08;;;;;;;7.47;5.60;;;13.90;99.90;;;;;;4173578;28;20169;-64
2022/06/01 01:27:09;;;;;;;10.23;6.43;;;13.80;99.90;;;;;;4173753;28;20051;-63
2022/06/01 01:29:12;;;;;;;15.77;5.47;;;13.80;99.90;;;;;;4174028;28;20738;-64
2022/06/01 01:31:22;;;;;;;13.43;6.13;;;13.70;99.90;;;;;;4173674;28;20025;-64
2022/06/01 01:33:26;;;;;;;12.02;6.00;;;13.70;99.90;;;;;;4179827;28;20082;-64
2022/06/01 01:35:27;;;;;;;9.83;5.90;;;13.70;99.90;;;;;;4190255;28;20529;-65
2022/06/01 01:37:28;;;;;;;9.20;5.30;;;13.70;99.90;;;;;;4189654;28;20036;-64
2022/06/01 01:39:31;;;;;;;9.03;6.13;;;13.60;99.90;;;;;;4190281;28;20553;-65
2022/06/01 01:41:46;;;;;;;8.13;5.23;;;13.60;99.90;;;;;;4188888;28;20094;-66
2022/06/01 01:43:59;;;;;;;10.13;5.50;;;13.60;99.90;;;;;;4188519;28;20036;-65
2022/06/01 01:46:01;;;;;;;9.60;6.30;;;13.60;99.90;;;;;;4189484;28;20078;-65
2022/06/01 01:48:03;;;;;;;14.97;5.93;;;13.60;99.90;;;;;;4189723;28;20036;-65
2022/06/01 01:50:12;;;;;;;12.57;6.93;;;13.60;99.90;;;;;;4189043;28;20028;-66
2022/06/01 01:52:15;;;;;;;9.03;5.50;;;13.50;99.90;;;;;;4190695;28;20424;-66
2022/06/01 01:54:19;;;;;;;7.93;5.90;;;13.50;99.90;;;;;;4189069;28;20044;-66
2022/06/01 01:56:36;;;;;;;8.70;5.60;;;13.50;99.90;;;;;;4190417;28;20029;-66
2022/06/01 01:58:42;;;;;;;11.43;5.70;;;13.50;99.90;;;;;;4189413;28;20017;-65
2022/06/01 02:00:51;;;;;;;7.60;5.33;;;13.40;99.90;;;;;;4188778;28;20502;-65
2022/06/01 02:03:06;;;;;;;8.17;5.50;;;13.50;99.90;;;;;;4189374;28;20082;-65
2022/06/01 02:07:58;;;;;;;8.43;4.97;;;13.30;99.90;;;;;;4188282;28;20082;-66
2022/06/01 02:14:51;;;;;;;14.43;5.87;;;13.30;99.90;;;;;;4189319;28;20025;-64
2022/06/01 02:17:05;;;;;;;11.87;6.00;;;13.30;99.90;;;;;;4189600;28;20028;-65
2022/06/01 02:19:10;;;;;;;7.63;5.53;;;13.20;99.90;;;;;;4188907;28;20029;-63
2022/06/01 02:21:20;;;;;;;7.53;5.80;;;13.30;99.90;;;;;;4189326;28;20037;-66
2022/06/01 02:23:21;;;;;;;8.65;5.38;;;13.20;99.90;;;;;;4188918;28;20099;-64
2022/06/01 02:25:23;;;;;;;7.47;5.80;;;13.30;99.90;;;;;;4188061;28;20025;-65
2022/06/01 02:27:24;;;;;;;9.03;5.43;;;13.30;99.90;;;;;;4176777;28;20029;-64
2022/06/01 02:29:48;;;;;;;8.77;5.30;;;13.20;99.90;;;;;;4172624;28;20083;-65
2022/06/01 02:31:50;;;;;;;9.87;5.87;;;13.20;99.90;;;;;;4187250;28;20040;-64
2022/06/01 02:33:53;;;;;;;8.17;5.37;;;13.20;99.90;;;;;;4189190;28;20032;-63
2022/06/01 02:35:58;;;;;;;10.07;6.03;;;13.20;99.90;;;;;;4189499;28;20024;-66
2022/06/01 02:38:02;;;;;;;9.30;5.47;;;13.20;99.90;;;;;;4188500;28;20468;-64
2022/06/01 02:40:08;;;;;;;10.03;5.67;;;13.10;99.90;;;;;;4189469;28;20044;-64
2022/06/01 02:42:28;;;;;;;11.80;5.90;;;13.10;99.90;;;;;;4188625;28;20090;-65
2022/06/01 02:44:29;;;;;;;7.75;6.03;;;13.10;99.90;;;;;;4188853;28;20618;-64
2022/06/01 02:46:31;;;;;;;11.37;6.43;;;13.10;99.90;;;;;;4178733;28;20033;-65
2022/06/01 02:48:32;;;;;;;7.13;5.13;;;13.10;99.90;;;;;;4172523;28;20033;-65
2022/06/01 02:50:35;;;;;;;9.97;5.30;;;13.00;99.90;;;;;;4175934;28;20048;-65
2022/06/01 02:52:36;;;;;;;9.50;5.80;;;13.00;99.90;;;;;;4189759;28;20037;-66
2022/06/01 02:54:37;;;;;;;7.67;5.33;;;13.00;99.90;;;;;;4187658;28;21464;-65
2022/06/01 02:56:39;;;;;;;9.07;5.57;;;13.00;99.90;;;;;;4189431;28;20048;-66
2022/06/01 02:58:40;;;;;;;14.80;6.03;;;13.10;99.90;;;;;;4188374;28;20756;-67
2022/06/01 03:00:41;;;;;;;10.50;6.00;;;13.20;99.90;;;;;;4188922;28;20044;-65
2022/06/01 03:02:53;;;;;;;8.50;5.43;;;13.40;99.90;;;;;;4188890;28;20074;-64
2022/06/01 03:04:55;;;;;;;9.63;4.70;;;13.60;99.90;;;;;;4189386;28;20476;-63
2022/06/01 03:06:56;;;;;;;9.37;5.53;;;13.70;99.90;;;;;;4188718;28;20082;-65
2022/06/01 03:08:57;;;;;;;9.80;5.43;;;14.00;99.90;;;;;;4188947;28;20488;-65
2022/06/01 03:10:59;;;;;;;7.40;4.87;;;14.20;99.90;;;;;;4181433;28;20044;-67
2022/06/01 03:13:00;;;;;;;8.70;5.13;;;14.50;99.90;;;;;;4187978;28;20078;-63
2022/06/01 03:15:01;;;;;;;10.20;5.13;;;14.70;99.90;;;;;;4178780;28;20048;-66
2022/06/01 03:17:05;;;;;;;9.20;4.10;;;14.80;99.90;;;;;;4171928;28;20029;-63
2022/06/01 03:19:06;;;;;;;8.63;4.90;;;14.90;99.90;;;;;;4172917;28;20095;-64
2022/06/01 03:21:09;;;;;;;9.18;4.82;;;15.10;99.90;;;;;;4170902;28;20090;-66
2022/06/01 03:23:10;;;;;;;8.88;4.60;;;15.40;99.90;;;;;;4172412;28;20098;-64
2022/06/01 03:25:15;;;;;;;7.45;4.45;;;15.60;99.90;;;;;;4171996;28;20053;-65
2022/06/01 03:27:17;;;;;;;10.90;4.57;;;15.80;99.90;;;;;;4172339;28;20033;-64
2022/06/01 03:29:18;;;;;;;6.80;4.57;;;16.10;99.90;;;;;;4171217;28;20021;-64
2022/06/01 03:31:19;;;;;;;7.53;4.50;;;16.20;99.90;;;;;;4172790;28;20842;-65
2022/06/01 03:33:20;;;;;;;5.90;4.10;;;16.40;99.90;;;;;;4171993;28;20041;-62
2022/06/01 03:35:25;;;;;;;6.68;4.05;;;16.70;99.90;;;;;;4172580;28;20424;-66
2022/06/01 03:37:27;;;;;;;7.38;4.50;;;17.10;99.90;;;;;;4171478;28;20091;-63
2022/06/01 03:39:29;;;;;;;10.02;4.22;;;17.50;99.90;;;;;;4185544;28;20032;-64
2022/06/01 03:41:30;;;;;;;18.63;3.83;;;17.80;99.90;;;;;;4175042;28;20100;-63
2022/06/01 03:45:55;;;;;;;10.95;4.88;;;18.00;99.90;;;;;;4172066;28;20467;-67
2022/06/01 03:46:02;;;;;;;10.73;4.07;;;18.30;99.90;;;;;;4171601;28;20036;-64
2022/06/01 03:48:04;;;;;;;7.00;3.83;;;18.50;99.90;;;;;;4172148;28;20074;-64
2022/06/01 03:50:06;;;;;;;5.97;4.05;;;18.80;99.90;;;;;;4171864;28;20052;-63
2022/06/01 03:52:07;;;;;;;4.07;3.17;;;18.90;99.90;;;;;;4171849;28;20101;-65
2022/06/01 03:54:08;;;;;;;5.60;2.75;;;19.00;99.90;;;;;;4170550;28;20103;-64
2022/06/01 03:56:09;;;;;;;5.45;3.55;;;19.30;99.90;;;;;;4179893;28;20939;-64
2022/06/01 03:58:17;;;;;;;5.13;3.05;;;19.60;99.90;;;;;;4191413;28;21290;-64
2022/06/01 04:00:21;;;;;;;7.03;3.05;;;19.80;99.90;;;;;;4188754;28;20032;-67
2022/06/01 04:02:22;;;;;;;4.22;3.15;;;19.90;99.90;;;;;;4174771;28;20029;-65
2022/06/01 04:04:23;;;;;;;5.63;3.60;;;20.20;99.90;;;;;;4174239;28;20037;-63
2022/06/01 04:06:24;;;;;;;5.05;3.03;;;20.50;99.90;;;;;;4176256;28;20040;-63
2022/06/01 04:08:26;;;;;;;7.43;3.45;;;20.80;99.90;;;;;;4189911;28;20049;-64
2022/06/01 04:10:27;;;;;;;7.13;3.53;;;21.40;99.90;;;;;;4191292;28;20040;-66
2022/06/01 04:12:28;;;;;;;9.45;3.25;;;21.90;99.90;;;;;;4190548;28;20094;-64
2022/06/01 04:14:29;;;;;;;10.65;3.40;;;22.20;99.90;;;;;;4191246;28;20036;-64
2022/06/01 04:16:30;;;;;;;6.97;3.30;;;;;;;;;;4188505;28;20792;-64
2022/06/01 04:18:32;;;;;;;5.53;2.85;;;;;;;;;;4174920;28;20087;-65
2022/06/01 04:20:33;;;;;;;7.35;2.70;;;;;;;;;;4173426;28;20052;-65
2022/06/01 04:22:35;;;;;;;9.05;3.00;;;;;;;;;;4174663;28;20075;-66
2022/06/01 04:24:36;;;;;;;10.25;3.05;;;22.70;99.90;;;;;;4178562;28;20089;-67
2022/06/01 04:26:38;;;;;;;6.30;3.42;;;22.90;99.90;;;;;;4190369;28;20032;-66
2022/06/01 04:28:39;;;;;;;6.55;3.00;;;;;;;;;;4189425;28;20021;-65
2022/06/01 04:30:41;;;;;;;3.40;2.50;;;;;;;;;;4173829;28;20101;-64
2022/06/01 04:32:45;;;;;;;4.57;3.08;;;23.20;99.90;;;;;;4174041;28;20114;-65
2022/06/01 04:34:46;;;;;;;4.07;2.88;;;23.10;99.90;;;;;;4174280;28;20025;-66
2022/06/01 04:36:47;;;;;;;4.10;2.75;;;23.00;99.90;;;;;;4174498;28;20037;-65
2022/06/01 04:38:48;;;;;;;5.28;3.00;;;23.30;99.90;;;;;;4173290;28;20971;-64
2022/06/01 04:40:50;;;;;;;3.88;2.70;;;;;;;;;;4174646;28;20075;-66
2022/06/01 04:42:52;;;;;;;3.42;3.13;;;;;;;;;;4190060;28;20640;-66
2022/06/01 04:44:53;;;;;;;5.60;3.15;;;;;;;;;;4190914;28;20469;-64
2022/06/01 04:46:55;;;;;;;6.95;3.13;;;;;;;;;;4189422;28;20036;-65
2022/06/01 04:48:56;;;;;;;11.23;5.05;;;;;;;;;;4179776;28;20104;-64
2022/06/01 04:50:58;;;;;;;5.00;3.50;;;;;;;;;;4177851;28;20024;-64
2022/06/01 04:53:00;;;;;;;8.95;4.53;;;;;;;;;;4190582;28;20036;-66
2022/06/01 04:55:02;;;;;;;8.90;4.35;;;;;;;;;;4189671;28;20049;-63
2022/06/01 04:57:03;;;;;;;9.40;4.50;;;;;;;;;;4177523;28;20792;-64
2022/06/01 04:59:04;;;;;;;14.95;4.32;;;23.40;99.90;;;;;;4173191;28;20439;-64
2022/06/01 05:01:06;;;;;;;11.02;5.05;;;24.20;99.90;;;;;;4174341;28;20115;-65
2022/06/01 05:03:08;;;;;;;13.25;4.72;;;;;;;;;;4180174;28;20028;-65
2022/06/01 05:05:11;;;;;;;8.75;4.55;;;;;;;;;;4190351;28;20029;-65
2022/06/01 05:07:12;;;;;;;5.85;4.10;;;;;;;;;;4189555;28;20028;-66
2022/06/01 05:09:13;;;;;;;9.50;4.95;;;24.10;99.90;;;;;;4189193;28;20032;-65
2022/06/01 05:11:15;;;;;;;6.43;4.43;;;24.90;99.80;;;;;;4157909;28;20041;-65
2022/06/01 05:13:19;;;;;;;8.98;4.03;;;24.60;99.70;;;;;;4156420;28;20818;-64
2022/06/01 05:15:21;;;;;;;7.28;4.75;;;24.50;99.70;;;;;;4164870;28;20037;-66
2022/06/01 05:17:22;;;;;;;10.43;3.88;;;24.20;99.90;;;;;;4172802;28;20037;-64
2022/06/01 05:19:23;;;;;;;5.68;4.70;;;24.10;99.90;;;;;;4174150;28;20025;-63
2022/06/01 05:21:24;;;;;;;11.70;5.53;;;24.00;99.90;;;;;;4172701;28;20161;-63
2022/06/01 05:23:26;;;;;;;7.57;4.25;;;24.00;99.90;;;;;;4174323;28;20041;-64
2022/06/01 05:25:27;;;;;;;7.75;4.43;;;23.90;99.90;;;;;;4183832;28;20044;-64
2022/06/01 05:27:28;;;;;;;11.55;5.13;;;24.00;99.90;;;;;;4190026;28;20024;-66
2022/06/01 05:29:29;;;;;;;13.30;4.07;;;24.00;99.90;;;;;;4189600;28;20066;-65
2022/06/01 05:31:30;;;;;;;7.43;4.60;;;23.80;99.90;;;;;;4183291;28;20506;-64
2022/06/01 05:33:31;;;;;;;9.95;4.32;;;23.10;99.90;;;;;;4180187;28;20117;-64
2022/06/01 05:35:32;;;;;;;11.00;4.38;;;22.60;99.90;;;;;;4172901;28;20017;-65
2022/06/01 05:37:34;;;;;;;8.55;4.30;;;22.00;99.90;;;;;;4173083;28;20029;-64
2022/06/01 05:39:35;;;;;;;9.15;5.15;;;22.10;99.90;;;;;;4171762;28;20033;-65
2022/06/01 05:41:36;;;;;;;10.90;5.63;;;21.50;99.90;;;;;;4187234;28;20059;-63
2022/06/01 05:43:37;;;;;;;5.93;4.82;;;21.40;99.90;;;;;;4188023;28;20036;-63
2022/06/01 05:45:39;;;;;;;7.97;5.07;;;21.00;99.90;;;;;;4190213;28;20028;-66
2022/06/01 05:47:40;;;;;;;8.10;5.13;;;20.60;99.90;;;;;;4187260;28;20020;-66
2022/06/01 05:49:41;;;;;;;10.75;5.70;;;19.90;99.90;;;;;;4189722;28;20086;-65
2022/06/01 05:51:43;;;;;;;19.50;6.18;;;19.50;99.90;;;;;;4189336;28;20549;-64
2022/06/01 05:53:44;;;;;;;8.15;6.32;;;19.20;99.90;;;;;;4177324;28;20095;-66
2022/06/01 05:55:45;;;;;;;10.48;7.25;;;19.00;99.90;;;;;;4172575;28;20067;-64
2022/06/01 05:57:46;;;;;;;17.90;7.35;;;18.60;99.90;;;;;;4173073;28;20729;-65
2022/06/01 05:59:47;;;;;;;13.05;7.10;;;18.60;99.90;;;;;;4176250;28;20041;-63
2022/06/01 06:01:48;;;;;;;13.77;9.40;;;18.60;99.90;;;;;;4189393;28;20093;-65
2022/06/01 06:03:50;;;;;;;12.80;8.88;;;18.60;99.90;;;;;;4182176;28;20098;-65
2022/06/01 06:08:11;;;;;;;14.75;10.50;;;18.30;99.90;;;;;;4172616;28;20094;-67
2022/06/01 06:10:12;;;;;;;13.80;9.65;;;18.30;99.90;;;;;;4172100;28;20879;-66
2022/06/01 06:12:13;;;;;;;15.70;9.70;;;18.20;99.90;;;;;;4171274;28;20037;-65
2022/06/01 06:14:15;;;;;;;14.50;9.15;;;18.10;99.90;;;;;;4176418;28;20106;-65
2022/06/01 06:16:17;;;;;;;15.27;8.98;;;18.00;99.90;;;;;;4187562;28;20077;-67
2022/06/01 06:18:18;;;;;;;13.05;9.52;;;18.00;99.90;;;;;;4184443;28;20021;-65
2022/06/01 06:20:19;;;;;;;12.63;8.57;;;17.80;99.90;;;;;;4172237;28;20033;-66
2022/06/01 06:22:22;;;;;;;13.60;9.13;;;17.70;99.90;;;;;;4171293;28;20116;-65
2022/06/01 06:24:24;;;;;;;15.65;9.48;;;17.60;99.90;;;;;;4173035;28;20045;-64
2022/06/01 06:26:25;;;;;;;20.88;13.05;;;17.60;99.90;;;;;;4185583;28;20114;-65
2022/06/01 06:28:26;;;;;;;22.77;15.10;;;17.40;99.90;;;;;;4189342;28;20036;-67
2022/06/01 06:30:27;;;;;;;18.42;11.80;;;17.40;99.90;;;;;;4188326;28;20036;-64
2022/06/01 06:32:29;;;;;;;20.42;14.52;;;17.50;99.90;;;;;;4189191;28;20032;-65
2022/06/01 06:34:30;;;;;;;27.15;14.68;;;17.70;99.90;;;;;;4188051;28;20029;-66
2022/06/01 06:36:31;;;;;;;19.88;13.63;;;17.80;99.90;;;;;;4188884;28;20078;-66
2022/06/01 06:38:34;;;;;;;16.15;11.45;;;18.00;99.90;;;;;;4178410;28;20017;-67
2022/06/01 06:40:35;;;;;;;16.10;10.38;;;17.90;99.90;;;;;;4182074;28;20025;-66
2022/06/01 06:42:36;;;;;;;18.58;10.35;;;17.70;99.90;;;;;;4176611;28;20025;-68
2022/06/01 06:44:37;;;;;;;17.15;11.70;;;17.60;99.90;;;;;;4171519;28;20114;-64
2022/06/01 06:46:38;;;;;;;17.10;10.20;;;17.70;99.90;;;;;;4172267;28;20045;-66
2022/06/01 06:48:41;;;;;;;15.50;10.73;;;17.90;99.90;;;;;;4170772;28;20094;-66
2022/06/01 06:50:42;;;;;;;12.23;9.10;;;18.10;99.90;;;;;;4172420;28;20116;-64
2022/06/01 06:52:43;;;;;;;13.00;9.18;;;18.30;99.90;;;;;;4171220;28;20029;-64
2022/06/01 06:54:44;;;;;;;16.38;9.20;;;18.40;99.90;;;;;;4171064;28;20569;-66
2022/06/01 06:56:45;;;;;;;10.60;7.75;;;18.50;99.90;;;;;;4171458;28;20086;-67
2022/06/01 06:58:48;;;;;;;12.38;8.10;;;18.60;99.90;;;;;;4172920;28;20684;-66
2022/06/01 07:00:49;;;;;;;12.95;8.98;;;18.60;99.90;;;;;;4171736;28;20153;-68
2022/06/01 07:02:50;;;;;;;14.93;9.25;;;18.60;99.90;;;;;;4172415;28;20102;-65
2022/06/01 07:04:51;;;;;;;12.70;8.88;;;18.70;99.90;;;;;;4176848;28;20474;-66
2022/06/01 07:06:52;;;;;;;12.75;8.25;;;18.60;99.90;;;;;;4172167;28;20037;-63
2022/06/01 07:08:54;;;;;;;10.63;7.95;;;18.70;99.90;;;;;;4171499;28;20037;-63
2022/06/01 07:10:57;;;;;;;14.75;8.77;;;18.70;99.90;;;;;;4171653;28;20788;-64
2022/06/01 07:12:58;;;;;;;15.85;9.57;;;18.70;99.90;;;;;;4172115;28;20086;-64
2022/06/01 07:14:59;;;;;;;10.15;7.95;;;18.70;99.90;;;;;;4170966;28;20550;-64
2022/06/01 07:17:01;;;;;;;12.98;7.97;;;18.80;99.90;;;;;;4171211;28;20033;-64
2022/06/01 07:19:05;;;;;;;10.13;7.18;;;18.90;99.90;;;;;;4162690;28;20033;-62
2022/06/01 07:21:07;;;;;;;9.65;7.57;;;19.00;99.90;;;;;;4173163;28;20067;-63
2022/06/01 07:23:08;;;;;;;15.23;9.00;;;19.10;99.90;;;;;;4180055;28;20082;-66
2022/06/01 07:25:09;;;;;;;17.33;9.00;;;19.20;99.90;;;;;;4174512;28;20860;-66
2022/06/01 07:27:10;;;;;;;11.90;8.35;;;19.10;99.90;;;;;;4171486;28;20046;-68
2022/06/01 07:29:14;;;;;;;12.18;7.82;;;19.10;99.90;;;;;;4181634;28;20087;-66
2022/06/01 07:31:17;;;;;;;11.30;7.93;;;18.80;99.90;;;;;;4183188;28;20036;-64
2022/06/01 07:33:18;;;;;;;12.77;8.02;;;18.70;99.90;;;;;;4192200;28;20791;-65
2022/06/01 07:35:19;;;;;;;11.43;8.50;;;18.70;99.90;;;;;;4189201;28;20442;-65
2022/06/01 07:44:24;;;;;;;12.63;9.02;;;19.40;99.90;;;;;;4173081;28;20363;-64
2022/06/01 07:46:25;;;;;;;10.07;8.15;;;19.60;99.90;;;;;;4180833;28;20066;-64
2022/06/01 07:48:26;;;;;;;11.98;8.55;;;19.60;99.90;;;;;;4190732;28;20028;-65
2022/06/01 07:50:28;;;;;;;11.40;8.25;;;19.60;99.90;;;;;;4192166;28;20070;-65
2022/06/01 07:52:29;;;;;;;12.25;8.00;;;19.50;99.90;;;;;;4190464;28;20032;-64
2022/06/01 07:54:30;;;;;;;10.93;8.43;;;19.60;99.90;;;;;;4190796;28;20892;-63
2022/06/01 07:56:32;;;;;;;14.02;8.70;;;19.60;99.90;;;;;;4186305;28;20025;-64
2022/06/01 07:58:34;;;;;;;11.32;8.07;;;19.70;99.90;;;;;;4174372;28;20033;-63
2022/06/01 08:00:35;;;;;;;17.00;9.50;;;19.80;99.90;;;;;;4174280;28;20083;-63
2022/06/01 08:02:38;;;;;;;12.18;8.32;;;19.80;99.90;;;;;;4174544;28;20037;-64
2022/06/01 08:04:39;;;;;;;12.80;8.68;;;20.10;99.90;;;;;;4175534;28;20154;-64
2022/06/01 08:06:40;;;;;;;12.77;8.55;;;20.30;99.90;;;;;;4174003;28;20032;-64
2022/06/01 08:08:41;;;;;;;9.23;8.25;;;20.30;99.90;;;;;;4174529;28;20554;-64
2022/06/01 08:10:43;;;;;;;9.75;7.45;;;20.30;99.90;;;;;;4174588;28;20037;-64
2022/06/01 08:15:05;;;;;;;10.90;7.55;;;20.40;99.90;;;;;;4174148;28;20079;-65
2022/06/01 08:17:06;;;;;;;9.35;6.95;;;20.50;99.90;;;;;;4160827;28;20034;-64
2022/06/01 08:19:09;;;;;;;9.30;7.70;;;20.70;99.90;;;;;;4168243;28;21016;-64
2022/06/01 08:21:10;;;;;;;9.10;7.57;;;20.90;99.90;;;;;;4177704;28;20036;-64
2022/06/01 08:23:12;;;;;;;8.38;7.55;;;21.00;99.90;;;;;;4174383;28;20492;-61
2022/06/01 08:25:18;;;;;;;10.15;7.85;;;21.10;99.90;;;;;;4174058;28;20033;-62
2022/06/01 08:27:19;;;;;;;11.25;7.47;;;21.20;99.90;;;;;;4174139;28;20139;-63
2022/06/01 08:29:20;;;;;;;12.95;8.25;;;21.30;99.90;;;;;;4174475;28;20114;-65
2022/06/01 08:31:26;;;;;;;11.02;7.43;;;21.30;99.90;;;;;;4173673;28;20499;-66
2022/06/01 08:33:28;;;;;;;13.68;7.80;;;21.20;99.90;;;;;;4174269;28;20083;-63
2022/06/01 08:35:35;;;;;;;10.20;7.55;;;21.10;99.90;;;;;;4173857;28;20017;-65
2022/06/01 08:37:37;;;;;;;12.10;7.53;;;21.10;99.90;;;;;;4174005;28;20071;-66
2022/06/01 08:39:38;;;;;;;12.50;8.82;;;21.10;99.90;;;;;;4172183;28;20025;-66
2022/06/01 08:41:40;;;;;;;16.95;8.80;;;21.10;99.90;;;;;;4171160;28;20091;-65
2022/06/01 08:43:46;;;;;;;9.63;7.70;;;21.20;99.90;;;;;;4174374;28;20036;-65
2022/06/01 08:45:55;;;;;;;10.60;7.85;;;21.30;99.90;;;;;;4173641;28;20029;-65
2022/06/01 08:47:56;;;;;;;11.95;7.85;;;21.30;99.90;;;;;;4174866;28;20444;-64
2022/06/01 08:50:00;;;;;;;11.38;7.75;;;21.50;99.90;;;;;;4173686;28;20460;-66
2022/06/01 08:52:03;;;;;;;11.48;8.15;;;21.50;99.90;;;;;;4174425;28;20465;-65
2022/06/01 08:54:04;;;;;;;13.48;8.93;;;21.60;99.90;;;;;;4172538;28;20043;-66
2022/06/01 08:56:14;;;;;;;10.18;7.45;;;21.60;99.90;;;;;;4174727;28;20473;-65
2022/06/01 08:58:19;;;;;;;15.90;8.55;;;21.60;99.90;;;;;;4173221;28;20059;-64
2022/06/01 09:00:21;;;;;;;10.70;8.77;;;21.50;99.90;;;;;;4174614;28;20029;-66
2022/06/01 09:02:40;;;;;;;10.77;7.43;;;21.60;99.90;;;;;;4172807;28;20045;-64
2022/06/01 09:04:50;;;;;;;26.67;7.95;;;21.60;99.90;;;;;;4173915;28;20037;-67
2022/06/01 09:07:29;;;;;;;17.10;8.07;;;21.60;99.90;;;;;;4173454;28;20079;-65
2022/06/01 09:09:56;;;;;;;11.02;7.43;;;21.60;99.90;;;;;;4172586;28;20033;-66
2022/06/01 09:11:58;;;;;;;10.85;6.40;;;21.70;99.90;;;;;;4173146;28;20094;-65
2022/06/01 09:14:26;;;;;;;10.05;7.13;;;21.70;99.90;;;;;;4172376;28;20045;-64
2022/06/01 09:16:37;;;;;;;11.68;6.60;;;21.70;99.90;;;;;;4173791;28;20087;-64
2022/06/01 09:18:47;;;;;;;11.52;6.60;;;21.70;99.90;;;;;;4173418;28;20079;-64
2022/06/01 09:23:15;;;;;;;11.48;6.93;;;21.80;99.90;;;;;;4173234;28;20083;-66
2022/06/01 09:25:19;;;;;;;8.65;6.35;;;21.80;99.90;;;;;;4173299;28;20037;-65
2022/06/01 09:27:44;;;;;;;10.77;6.82;;;21.80;99.90;;;;;;4173065;28;20021;-64
2022/06/01 09:29:51;;;;;;;10.18;6.55;;;21.90;99.90;;;;;;4172722;28;20032;-66
2022/06/01 09:32:06;;;;;;;13.52;7.07;;;22.00;99.90;;;;;;4173088;28;20041;-63
2022/06/01 09:34:27;;;;;;;10.20;6.53;;;22.10;99.90;;;;;;4173572;28;20037;-65
2022/06/01 09:36:29;;;;;;;9.52;7.07;;;22.20;99.90;;;;;;4171762;28;20834;-64
2022/06/01 09:38:47;;;;;;;12.88;6.75;;;22.30;99.90;;;;;;4173155;28;20102;-64
2022/06/01 09:41:02;;;;;;;12.70;6.22;;;22.40;99.90;;;;;;4172584;28;20048;-65
2022/06/01 09:43:03;;;;;;;9.30;6.72;;;22.50;99.90;;;;;;4173659;28;20133;-65
2022/06/01 09:45:22;;;;;;;8.38;6.53;;;22.50;99.90;;;;;;4172567;28;20024;-65
2022/06/01 09:47:35;;;;;;;8.75;6.53;;;22.50;99.90;;;;;;4173493;28;20485;-64
2022/06/01 09:49:41;;;;;;;8.45;5.47;;;22.40;99.90;;;;;;4172547;28;20041;-65
2022/06/01 09:51:42;;;;;;;9.48;5.05;;;22.60;99.90;;;;;;4172953;28;20547;-66
2022/06/01 09:54:11;;;;;;;7.97;5.55;;;22.60;99.90;;;;;;4172253;28;20649;-65
2022/06/01 09:56:18;;;;;;;8.98;6.25;;;22.60;99.90;;;;;;4172355;28;20894;-65
2022/06/01 10:08:20;;;;;;;8.18;5.85;;;22.70;99.90;;;;;;4171600;28;20186;-65
2022/06/01 10:10:25;;;;;;;8.18;5.78;;;22.80;99.90;;;;;;4173404;28;20041;-65
2022/06/01 10:12:32;;;;;;;11.77;6.60;;;22.90;99.90;;;;;;4172593;28;20551;-64
2022/06/01 10:14:35;;;;;;;9.13;5.68;;;22.90;99.90;;;;;;4172405;28;20033;-65
2022/06/01 10:16:46;;;;;;;6.88;5.90;;;23.00;99.90;;;;;;4170736;28;20033;-65
2022/06/01 10:18:53;;;;;;;11.57;6.55;;;23.10;99.90;;;;;;4172544;28;20041;-66
2022/06/01 10:20:58;;;;;;;6.70;5.38;;;23.30;99.90;;;;;;4171781;28;20473;-65
2022/06/01 10:23:24;;;;;;;6.45;5.53;;;23.40;99.90;;;;;;4172218;28;20095;-65
2022/06/01 10:25:32;;;;;;;7.15;5.32;;;;;;;;;;4171320;28;20049;-65
2022/06/01 10:27:52;;;;;;;6.63;5.20;;;;;;;;;;4171956;28;20094;-66
2022/06/01 10:30:14;;;;;;;7.80;4.93;;;;;;;;;;4171594;28;20040;-65
2022/06/01 10:32:27;;;;;;;7.35;4.95;;;;;;;;;;4171549;28;20049;-65
2022/06/01 10:34:31;;;;;;;7.95;5.13;;;;;;;;;;4172597;28;20045;-64
2022/06/01 10:36:41;;;;;;;5.63;5.05;;;;;;;;;;4172298;28;20558;-66
2022/06/01 10:38:47;;;;;;;6.60;5.22;;;;;;;;;;4171350;28;20481;-66
2022/06/01 10:40:55;;;;;;;8.55;5.25;;;;;;;;;;4172281;28;20029;-66
2022/06/01 10:43:32;;;;;;;7.80;5.40;;;;;;;;;;4171751;28;20131;-65
2022/06/01 10:45:28;;;;;;;5.32;4.82;;;;;;;;;;4170846;28;20041;-64
2022/06/01 10:47:38;;;;;;;6.53;5.00;;;;;;;;;;4171986;28;20300;-65
2022/06/01 10:49:39;;;;;;;43.47;21.95;;;;;;;;;;4172094;28;20033;-64
2022/06/01 10:51:40;;;;;;;10.23;7.43;;;;;;;;;;4171217;28;20086;-65
2022/06/01 10:54:00;;;;;;;13.98;6.07;;;;;;;;;;4172071;28;20423;-65
2022/06/01 10:56:02;;;;;;;8.20;5.13;;;;;;;;;;4172219;28;20472;-67
2022/06/01 10:58:03;;;;;;;4.95;4.45;;;;;;;;;;4172478;28;20063;-64
2022/06/01 11:00:07;;;;;;;11.48;5.13;;;;;;;;;;4171775;28;20087;-64
2022/06/01 11:02:09;;;;;;;7.82;4.32;;;;;;;;;;4172521;28;20041;-65
2022/06/01 11:04:13;;;;;;;5.47;4.65;;;;;;;;;;4170992;28;20033;-66
2022/06/01 11:06:18;;;;;;;7.35;5.35;;;;;;;;;;4172084;28;20033;-65
2022/06/01 11:08:22;;;;;;;7.18;5.00;;;;;;;;;;4170895;28;20037;-66
2022/06/01 11:10:40;;;;;;;6.45;4.25;;;;;;;;;;4172560;28;20037;-65
2022/06/01 11:12:41;;;;;;;7.70;4.55;;;;;;;;;;4171770;28;20041;-67
2022/06/01 11:14:49;;;;;;;5.43;4.45;;;;;;;;;;4172376;28;20040;-64
2022/06/01 11:16:56;;;;;;;39.17;8.38;;;;;;;;;;4170952;28;20041;-65
2022/06/01 11:18:58;;;;;;;7.75;5.20;;;;;;;;;;4172071;28;20048;-65
2022/06/01 11:21:20;;;;;;;7.32;5.20;;;;;;;;;;4170464;28;20496;-65
2022/06/01 11:23:34;;;;;;;6.93;4.47;;;;;;;;;;4171882;28;20095;-66
2022/06/01 11:25:55;;;;;;;6.38;5.00;;;;;;;;;;4170756;28;20448;-65
2022/06/01 11:28:09;;;;;;;5.45;4.30;;;;;;;;;;4172440;28;20078;-65